sensor_id;sensor_type;location;lat;lon;timestamp;temperature;humidity
463;DHT22;218;51.902;9.542;2023-07-31T00:01:27;21.90;1.00
463;DHT22;218;51.902;9.542;2023-07-31T00:03:53;21.90;1.00
463;DHT22;218;51.902;9.542;2023-07-31T00:06:20;21.80;1.00
463;DHT22;218;51.902;9.542;2023-07-31T00:08:47;21.80;1.00
463;DHT22;218;51.902;9.542;2023-07-31T00:11:14;21.80;1.00
463;DHT22;218;51.902;9.542;2023-07-31T00:13:41;21.80;1.00
463;DHT22;218;51.902;9.542;2023-07-31T00:16:09;21.80;1.00
463;DHT22;218;51.902;9.542;2023-07-31T00:18:36;21.70;1.00
463;DHT22;218;51.902;9.542;2023-07-31T00:21:03;21.80;1.00
463;DHT22;218;51.902;9.542;2023-07-31T00:23:30;21.70;1.00
463;DHT22;218;51.902;9.542;2023-07-31T00:28:23;21.70;1.00
463;DHT22;218;51.902;9.542;2023-07-31T00:30:49;21.70;1.00
463;DHT22;218;51.902;9.542;2023-07-31T00:33:18;21.70;1.00
463;DHT22;218;51.902;9.542;2023-07-31T00:35:45;21.70;1.00
463;DHT22;218;51.902;9.542;2023-07-31T00:38:11;21.70;1.00
463;DHT22;218;51.902;9.542;2023-07-31T00:40:38;21.60;1.00
463;DHT22;218;51.902;9.542;2023-07-31T00:43:05;21.70;1.00
463;DHT22;218;51.902;9.542;2023-07-31T00:45:32;21.70;1.00
463;DHT22;218;51.902;9.542;2023-07-31T00:47:59;21.60;1.00
463;DHT22;218;51.902;9.542;2023-07-31T00:50:28;21.60;1.00
463;DHT22;218;51.902;9.542;2023-07-31T00:52:55;21.60;1.00
463;DHT22;218;51.902;9.542;2023-07-31T00:55:22;21.60;1.00
463;DHT22;218;51.902;9.542;2023-07-31T00:57:49;21.60;1.00
463;DHT22;218;51.902;9.542;2023-07-31T01:00:18;21.60;1.00
463;DHT22;218;51.902;9.542;2023-07-31T01:02:45;21.50;1.00
463;DHT22;218;51.902;9.542;2023-07-31T01:05:12;21.60;1.00
463;DHT22;218;51.902;9.542;2023-07-31T01:07:45;21.60;1.00
463;DHT22;218;51.902;9.542;2023-07-31T01:10:18;21.60;1.00
463;DHT22;218;51.902;9.542;2023-07-31T01:12:48;21.60;1.00
463;DHT22;218;51.902;9.542;2023-07-31T01:15:15;21.50;1.00
463;DHT22;218;51.902;9.542;2023-07-31T01:17:43;21.50;1.00
463;DHT22;218;51.902;9.542;2023-07-31T01:22:58;21.50;1.00
463;DHT22;218;51.902;9.542;2023-07-31T01:28:43;21.50;1.00
463;DHT22;218;51.902;9.542;2023-07-31T01:31:16;21.50;1.00
463;DHT22;218;51.902;9.542;2023-07-31T01:33:45;21.40;1.00
463;DHT22;218;51.902;9.542;2023-07-31T01:36:12;21.40;1.00
463;DHT22;218;51.902;9.542;2023-07-31T01:38:40;21.50;1.00
463;DHT22;218;51.902;9.542;2023-07-31T01:41:08;21.40;1.00
463;DHT22;218;51.902;9.542;2023-07-31T01:43:35;21.50;1.00
463;DHT22;218;51.902;9.542;2023-07-31T01:46:02;21.50;1.00
463;DHT22;218;51.902;9.542;2023-07-31T01:48:28;21.40;1.00
463;DHT22;218;51.902;9.542;2023-07-31T01:51:01;21.40;1.00
463;DHT22;218;51.902;9.542;2023-07-31T01:53:28;21.40;1.00
463;DHT22;218;51.902;9.542;2023-07-31T01:55:57;21.40;1.00
463;DHT22;218;51.902;9.542;2023-07-31T01:58:25;21.50;1.00
463;DHT22;218;51.902;9.542;2023-07-31T02:00:52;21.40;1.00
463;DHT22;218;51.902;9.542;2023-07-31T02:03:19;21.40;1.00
463;DHT22;218;51.902;9.542;2023-07-31T02:05:46;21.40;1.00
463;DHT22;218;51.902;9.542;2023-07-31T02:08:13;21.40;1.00
463;DHT22;218;51.902;9.542;2023-07-31T02:10:40;21.40;1.00
463;DHT22;218;51.902;9.542;2023-07-31T02:15:36;21.40;1.00
463;DHT22;218;51.902;9.542;2023-07-31T02:18:03;21.40;1.00
463;DHT22;218;51.902;9.542;2023-07-31T02:20:30;21.30;1.00
463;DHT22;218;51.902;9.542;2023-07-31T02:22:59;21.40;1.00
463;DHT22;218;51.902;9.542;2023-07-31T02:25:26;21.40;1.00
463;DHT22;218;51.902;9.542;2023-07-31T02:27:53;21.30;1.00
463;DHT22;218;51.902;9.542;2023-07-31T02:30:20;21.30;1.00
463;DHT22;218;51.902;9.542;2023-07-31T02:37:44;21.20;1.00
463;DHT22;218;51.902;9.542;2023-07-31T02:40:11;21.30;1.00
463;DHT22;218;51.902;9.542;2023-07-31T02:42:38;21.20;1.00
463;DHT22;218;51.902;9.542;2023-07-31T02:45:06;21.30;1.00
463;DHT22;218;51.902;9.542;2023-07-31T02:47:33;21.30;1.00
463;DHT22;218;51.902;9.542;2023-07-31T02:50:01;21.30;1.00
463;DHT22;218;51.902;9.542;2023-07-31T02:54:56;21.20;1.00
463;DHT22;218;51.902;9.542;2023-07-31T02:59:50;21.30;1.00
463;DHT22;218;51.902;9.542;2023-07-31T03:04:44;21.30;1.00
463;DHT22;218;51.902;9.542;2023-07-31T03:07:12;21.30;1.00
463;DHT22;218;51.902;9.542;2023-07-31T03:12:07;21.20;1.00
463;DHT22;218;51.902;9.542;2023-07-31T03:14:34;21.10;1.00
463;DHT22;218;51.902;9.542;2023-07-31T03:17:01;21.20;1.00
463;DHT22;218;51.902;9.542;2023-07-31T03:19:30;21.10;1.00
463;DHT22;218;51.902;9.542;2023-07-31T03:21:57;21.10;1.00
463;DHT22;218;51.902;9.542;2023-07-31T03:24:25;21.10;1.00
463;DHT22;218;51.902;9.542;2023-07-31T03:26:52;21.10;1.00
463;DHT22;218;51.902;9.542;2023-07-31T03:29:19;21.10;1.00
463;DHT22;218;51.902;9.542;2023-07-31T03:31:46;21.10;1.00
463;DHT22;218;51.902;9.542;2023-07-31T03:34:13;20.90;1.00
463;DHT22;218;51.902;9.542;2023-07-31T03:36:40;21.10;1.00
463;DHT22;218;51.902;9.542;2023-07-31T03:44:01;21.10;1.00
463;DHT22;218;51.902;9.542;2023-07-31T03:46:28;21.00;1.00
463;DHT22;218;51.902;9.542;2023-07-31T03:48:55;21.10;1.00
463;DHT22;218;51.902;9.542;2023-07-31T03:53:49;20.90;1.00
463;DHT22;218;51.902;9.542;2023-07-31T03:56:16;21.00;1.00
463;DHT22;218;51.902;9.542;2023-07-31T03:58:44;20.90;1.00
463;DHT22;218;51.902;9.542;2023-07-31T04:01:11;21.10;1.00
463;DHT22;218;51.902;9.542;2023-07-31T04:06:05;21.00;1.00
463;DHT22;218;51.902;9.542;2023-07-31T04:08:33;21.10;1.00
463;DHT22;218;51.902;9.542;2023-07-31T04:11:00;20.90;1.00
463;DHT22;218;51.902;9.542;2023-07-31T04:13:28;20.80;1.00
463;DHT22;218;51.902;9.542;2023-07-31T04:15:57;21.00;1.00
463;DHT22;218;51.902;9.542;2023-07-31T04:18:25;20.90;1.00
463;DHT22;218;51.902;9.542;2023-07-31T04:23:20;20.80;1.00
463;DHT22;218;51.902;9.542;2023-07-31T04:25:46;20.90;1.00
463;DHT22;218;51.902;9.542;2023-07-31T04:33:09;21.10;1.00
463;DHT22;218;51.902;9.542;2023-07-31T04:35:36;21.00;1.00
463;DHT22;218;51.902;9.542;2023-07-31T04:38:03;20.90;1.00
463;DHT22;218;51.902;9.542;2023-07-31T04:40:30;21.00;1.00
463;DHT22;218;51.902;9.542;2023-07-31T04:42:57;21.20;1.00
463;DHT22;218;51.902;9.542;2023-07-31T04:47:51;21.00;1.00
463;DHT22;218;51.902;9.542;2023-07-31T04:52:46;21.10;1.00
463;DHT22;218;51.902;9.542;2023-07-31T04:57:40;21.10;1.00
463;DHT22;218;51.902;9.542;2023-07-31T05:00:08;21.00;1.00
463;DHT22;218;51.902;9.542;2023-07-31T05:02:35;21.10;1.00
463;DHT22;218;51.902;9.542;2023-07-31T05:17:19;21.10;1.00
463;DHT22;218;51.902;9.542;2023-07-31T05:22:13;21.10;1.00
463;DHT22;218;51.902;9.542;2023-07-31T05:29:36;21.20;1.00
463;DHT22;218;51.902;9.542;2023-07-31T05:34:30;21.20;1.00
463;DHT22;218;51.902;9.542;2023-07-31T05:39:24;21.30;1.00
463;DHT22;218;51.902;9.542;2023-07-31T05:41:52;21.20;1.00
463;DHT22;218;51.902;9.542;2023-07-31T05:44:19;21.20;1.00
463;DHT22;218;51.902;9.542;2023-07-31T05:46:46;21.10;1.00
463;DHT22;218;51.902;9.542;2023-07-31T05:49:13;21.20;1.00
463;DHT22;218;51.902;9.542;2023-07-31T05:54:07;21.30;1.00
463;DHT22;218;51.902;9.542;2023-07-31T06:03:57;21.20;1.00
463;DHT22;218;51.902;9.542;2023-07-31T06:06:24;21.20;1.00
463;DHT22;218;51.902;9.542;2023-07-31T06:08:51;21.10;1.00
463;DHT22;218;51.902;9.542;2023-07-31T06:11:19;21.30;1.00
463;DHT22;218;51.902;9.542;2023-07-31T06:13:46;21.20;1.00
463;DHT22;218;51.902;9.542;2023-07-31T06:16:16;21.10;1.00
463;DHT22;218;51.902;9.542;2023-07-31T06:18:43;21.30;1.00
463;DHT22;218;51.902;9.542;2023-07-31T06:21:10;21.20;1.00
463;DHT22;218;51.902;9.542;2023-07-31T06:23:37;21.30;1.00
463;DHT22;218;51.902;9.542;2023-07-31T06:26:04;21.20;1.00
463;DHT22;218;51.902;9.542;2023-07-31T06:30:59;21.20;1.00
463;DHT22;218;51.902;9.542;2023-07-31T06:33:27;21.30;1.00
463;DHT22;218;51.902;9.542;2023-07-31T06:35:54;21.20;1.00
463;DHT22;218;51.902;9.542;2023-07-31T06:38:24;20.00;1.00
463;DHT22;218;51.902;9.542;2023-07-31T06:40:51;21.30;1.00
463;DHT22;218;51.902;9.542;2023-07-31T06:43:18;21.30;1.00
463;DHT22;218;51.902;9.542;2023-07-31T06:45:45;21.30;1.00
463;DHT22;218;51.902;9.542;2023-07-31T06:48:14;21.30;1.00
463;DHT22;218;51.902;9.542;2023-07-31T06:50:42;21.40;1.00
463;DHT22;218;51.902;9.542;2023-07-31T06:53:09;21.40;1.00
463;DHT22;218;51.902;9.542;2023-07-31T06:55:37;21.40;1.00
463;DHT22;218;51.902;9.542;2023-07-31T06:58:04;21.40;1.00
463;DHT22;218;51.902;9.542;2023-07-31T07:00:31;21.40;1.00
463;DHT22;218;51.902;9.542;2023-07-31T07:02:59;21.40;1.00
463;DHT22;218;51.902;9.542;2023-07-31T07:05:25;21.40;1.00
463;DHT22;218;51.902;9.542;2023-07-31T07:07:54;21.40;1.00
463;DHT22;218;51.902;9.542;2023-07-31T07:12:48;21.40;1.00
463;DHT22;218;51.902;9.542;2023-07-31T07:15:15;22.70;1.00
463;DHT22;218;51.902;9.542;2023-07-31T07:20:10;21.50;1.00
463;DHT22;218;51.902;9.542;2023-07-31T07:25:06;21.50;1.00
463;DHT22;218;51.902;9.542;2023-07-31T07:27:33;21.50;1.00
463;DHT22;218;51.902;9.542;2023-07-31T07:30:00;21.50;1.00
463;DHT22;218;51.902;9.542;2023-07-31T07:32:27;21.70;1.00
463;DHT22;218;51.902;9.542;2023-07-31T07:34:55;21.60;1.00
463;DHT22;218;51.902;9.542;2023-07-31T07:37:22;21.70;1.00
463;DHT22;218;51.902;9.542;2023-07-31T07:39:49;21.80;1.00
463;DHT22;218;51.902;9.542;2023-07-31T07:42:17;21.70;1.00
463;DHT22;218;51.902;9.542;2023-07-31T07:47:12;21.80;1.00
463;DHT22;218;51.902;9.542;2023-07-31T07:49:39;21.70;1.00
463;DHT22;218;51.902;9.542;2023-07-31T10:15:31;23.10;1.00
463;DHT22;218;51.902;9.542;2023-07-31T10:17:59;23.10;1.00
463;DHT22;218;51.902;9.542;2023-07-31T12:54:26;23.70;1.00
463;DHT22;218;51.902;9.542;2023-07-31T12:56:52;23.70;1.00
463;DHT22;218;51.902;9.542;2023-07-31T12:59:19;23.70;1.00
463;DHT22;218;51.902;9.542;2023-07-31T18:09:17;23.60;1.00
463;DHT22;218;51.902;9.542;2023-07-31T18:11:44;23.70;1.00
463;DHT22;218;51.902;9.542;2023-07-31T18:14:11;23.60;1.00
463;DHT22;218;51.902;9.542;2023-07-31T18:16:39;23.60;1.00
463;DHT22;218;51.902;9.542;2023-07-31T18:19:06;23.60;1.00
463;DHT22;218;51.902;9.542;2023-07-31T18:21:33;23.60;1.00
463;DHT22;218;51.902;9.542;2023-07-31T18:24:01;23.60;1.00
463;DHT22;218;51.902;9.542;2023-07-31T18:26:28;23.60;1.00
463;DHT22;218;51.902;9.542;2023-07-31T18:28:56;23.60;1.00
463;DHT22;218;51.902;9.542;2023-07-31T18:31:22;23.60;1.00
463;DHT22;218;51.902;9.542;2023-07-31T18:33:54;23.60;1.00
463;DHT22;218;51.902;9.542;2023-07-31T18:36:20;23.60;1.00
463;DHT22;218;51.902;9.542;2023-07-31T18:38:47;23.60;1.00
463;DHT22;218;51.902;9.542;2023-07-31T18:41:14;23.60;1.00
463;DHT22;218;51.902;9.542;2023-07-31T18:43:41;23.60;1.00
463;DHT22;218;51.902;9.542;2023-07-31T18:46:08;23.60;1.00
463;DHT22;218;51.902;9.542;2023-07-31T18:48:35;23.60;1.00
463;DHT22;218;51.902;9.542;2023-07-31T18:51:03;23.60;1.00
463;DHT22;218;51.902;9.542;2023-07-31T18:53:30;23.60;1.00
463;DHT22;218;51.902;9.542;2023-07-31T18:55:57;23.60;1.00
463;DHT22;218;51.902;9.542;2023-07-31T18:58:24;23.60;1.00
463;DHT22;218;51.902;9.542;2023-07-31T19:00:51;23.60;1.00
463;DHT22;218;51.902;9.542;2023-07-31T19:03:18;23.60;1.00
463;DHT22;218;51.902;9.542;2023-07-31T19:05:44;23.60;1.00
463;DHT22;218;51.902;9.542;2023-07-31T19:08:13;23.60;1.00
463;DHT22;218;51.902;9.542;2023-07-31T19:10:40;23.60;1.00
463;DHT22;218;51.902;9.542;2023-07-31T19:13:07;23.60;1.00
463;DHT22;218;51.902;9.542;2023-07-31T19:15:35;23.50;1.00
463;DHT22;218;51.902;9.542;2023-07-31T19:18:02;23.60;1.00
463;DHT22;218;51.902;9.542;2023-07-31T19:20:30;23.50;1.00
463;DHT22;218;51.902;9.542;2023-07-31T19:22:57;23.50;1.00
463;DHT22;218;51.902;9.542;2023-07-31T19:25:25;23.50;1.00
463;DHT22;218;51.902;9.542;2023-07-31T19:27:52;23.50;1.00
463;DHT22;218;51.902;9.542;2023-07-31T19:30:19;23.40;1.00
463;DHT22;218;51.902;9.542;2023-07-31T19:32:46;23.40;1.00
463;DHT22;218;51.902;9.542;2023-07-31T19:35:14;23.40;1.00
463;DHT22;218;51.902;9.542;2023-07-31T19:37:41;23.40;1.00
463;DHT22;218;51.902;9.542;2023-07-31T19:40:08;23.40;1.00
463;DHT22;218;51.902;9.542;2023-07-31T19:42:37;23.40;1.00
463;DHT22;218;51.902;9.542;2023-07-31T19:45:04;23.40;1.00
463;DHT22;218;51.902;9.542;2023-07-31T19:47:31;23.30;1.00
463;DHT22;218;51.902;9.542;2023-07-31T19:50:00;23.30;1.00
463;DHT22;218;51.902;9.542;2023-07-31T19:52:28;23.30;1.00
463;DHT22;218;51.902;9.542;2023-07-31T19:54:55;23.30;1.00
463;DHT22;218;51.902;9.542;2023-07-31T19:57:22;23.20;1.00
463;DHT22;218;51.902;9.542;2023-07-31T19:59:50;23.20;1.00
463;DHT22;218;51.902;9.542;2023-07-31T20:02:17;23.20;1.00
463;DHT22;218;51.902;9.542;2023-07-31T20:04:44;23.20;1.00
463;DHT22;218;51.902;9.542;2023-07-31T20:07:11;23.10;1.00
463;DHT22;218;51.902;9.542;2023-07-31T20:09:38;23.10;1.00
463;DHT22;218;51.902;9.542;2023-07-31T20:14:32;23.10;1.00
463;DHT22;218;51.902;9.542;2023-07-31T20:17:00;23.10;1.00
463;DHT22;218;51.902;9.542;2023-07-31T22:07:37;22.40;1.00
463;DHT22;218;51.902;9.542;2023-07-31T22:10:04;22.30;1.00
463;DHT22;218;51.902;9.542;2023-07-31T22:12:31;22.30;1.00
463;DHT22;218;51.902;9.542;2023-07-31T22:14:58;22.30;1.00
463;DHT22;218;51.902;9.542;2023-07-31T22:17:26;22.30;1.00
463;DHT22;218;51.902;9.542;2023-07-31T22:19:53;22.30;1.00
463;DHT22;218;51.902;9.542;2023-07-31T22:22:20;22.30;1.00
463;DHT22;218;51.902;9.542;2023-07-31T22:24:47;22.20;1.00
463;DHT22;218;51.902;9.542;2023-07-31T22:27:14;22.30;1.00
463;DHT22;218;51.902;9.542;2023-07-31T22:29:41;22.20;1.00
463;DHT22;218;51.902;9.542;2023-07-31T22:32:08;22.30;1.00
463;DHT22;218;51.902;9.542;2023-07-31T22:34:37;22.20;1.00
463;DHT22;218;51.902;9.542;2023-07-31T22:37:04;22.20;1.00
463;DHT22;218;51.902;9.542;2023-07-31T22:39:31;22.20;1.00
463;DHT22;218;51.902;9.542;2023-07-31T22:41:57;22.20;1.00
463;DHT22;218;51.902;9.542;2023-07-31T22:44:24;22.20;1.00
463;DHT22;218;51.902;9.542;2023-07-31T22:46:51;22.20;1.00
463;DHT22;218;51.902;9.542;2023-07-31T22:49:18;22.20;1.00
463;DHT22;218;51.902;9.542;2023-07-31T22:51:46;22.20;1.00
463;DHT22;218;51.902;9.542;2023-07-31T22:56:40;22.20;1.00
463;DHT22;218;51.902;9.542;2023-07-31T22:59:07;22.10;1.00
463;DHT22;218;51.902;9.542;2023-07-31T23:01:34;22.20;1.00
463;DHT22;218;51.902;9.542;2023-07-31T23:04:01;22.10;1.00
463;DHT22;218;51.902;9.542;2023-07-31T23:06:28;22.10;1.00
463;DHT22;218;51.902;9.542;2023-07-31T23:08:56;22.20;1.00
463;DHT22;218;51.902;9.542;2023-07-31T23:11:23;22.10;1.00
463;DHT22;218;51.902;9.542;2023-07-31T23:13:52;22.10;1.00
463;DHT22;218;51.902;9.542;2023-07-31T23:16:19;22.10;1.00
463;DHT22;218;51.902;9.542;2023-07-31T23:18:46;22.20;1.00
463;DHT22;218;51.902;9.542;2023-07-31T23:21:12;22.10;1.00
463;DHT22;218;51.902;9.542;2023-07-31T23:26:08;22.10;1.00
463;DHT22;218;51.902;9.542;2023-07-31T23:28:35;22.10;1.00
463;DHT22;218;51.902;9.542;2023-07-31T23:31:02;22.10;1.00
463;DHT22;218;51.902;9.542;2023-07-31T23:33:29;22.10;1.00
463;DHT22;218;51.902;9.542;2023-07-31T23:35:56;22.20;1.00
463;DHT22;218;51.902;9.542;2023-07-31T23:38:23;22.10;1.00
463;DHT22;218;51.902;9.542;2023-07-31T23:40:50;22.10;1.00
463;DHT22;218;51.902;9.542;2023-07-31T23:43:18;22.00;1.00
463;DHT22;218;51.902;9.542;2023-07-31T23:45:45;22.10;1.00
463;DHT22;218;51.902;9.542;2023-07-31T23:48:12;22.10;1.00
463;DHT22;218;51.902;9.542;2023-07-31T23:50:39;22.10;1.00
463;DHT22;218;51.902;9.542;2023-07-31T23:53:06;22.10;1.00
